sensor_id;sensor_type;location;lat;lon;timestamp;temperature;humidity
21559;DHT22;10940;48.890;8.240;2023-07-31T00:00:39;17.90;99.90
21559;DHT22;10940;48.890;8.240;2023-07-31T00:03:04;17.90;99.90
21559;DHT22;10940;48.890;8.240;2023-07-31T00:05:30;17.80;99.90
21559;DHT22;10940;48.890;8.240;2023-07-31T00:07:55;17.80;99.90
21559;DHT22;10940;48.890;8.240;2023-07-31T00:10:21;17.80;99.90
21559;DHT22;10940;48.890;8.240;2023-07-31T00:12:47;17.70;99.90
21559;DHT22;10940;48.890;8.240;2023-07-31T00:15:14;17.60;99.90
21559;DHT22;10940;48.890;8.240;2023-07-31T00:17:40;17.60;99.90
21559;DHT22;10940;48.890;8.240;2023-07-31T00:20:06;17.60;99.90
21559;DHT22;10940;48.890;8.240;2023-07-31T00:22:31;17.50;99.90
21559;DHT22;10940;48.890;8.240;2023-07-31T00:24:57;17.50;99.90
21559;DHT22;10940;48.890;8.240;2023-07-31T00:27:23;17.50;99.90
21559;DHT22;10940;48.890;8.240;2023-07-31T00:29:48;17.50;99.90
21559;DHT22;10940;48.890;8.240;2023-07-31T00:32:14;17.50;99.90
21559;DHT22;10940;48.890;8.240;2023-07-31T00:34:40;17.60;99.90
21559;DHT22;10940;48.890;8.240;2023-07-31T00:37:05;17.50;99.90
21559;DHT22;10940;48.890;8.240;2023-07-31T00:39:31;17.50;99.90
21559;DHT22;10940;48.890;8.240;2023-07-31T00:41:57;17.50;99.90
21559;DHT22;10940;48.890;8.240;2023-07-31T00:44:23;17.60;99.90
21559;DHT22;10940;48.890;8.240;2023-07-31T00:46:49;17.50;99.90
21559;DHT22;10940;48.890;8.240;2023-07-31T00:49:15;17.50;99.90
21559;DHT22;10940;48.890;8.240;2023-07-31T00:51:41;17.50;99.90
21559;DHT22;10940;48.890;8.240;2023-07-31T00:54:07;17.50;99.90
21559;DHT22;10940;48.890;8.240;2023-07-31T00:56:33;17.50;99.90
21559;DHT22;10940;48.890;8.240;2023-07-31T00:58:59;17.50;99.90
21559;DHT22;10940;48.890;8.240;2023-07-31T01:01:24;17.50;99.90
21559;DHT22;10940;48.890;8.240;2023-07-31T01:03:51;17.40;99.90
21559;DHT22;10940;48.890;8.240;2023-07-31T01:09:19;17.40;99.90
21559;DHT22;10940;48.890;8.240;2023-07-31T01:11:53;17.40;99.90
21559;DHT22;10940;48.890;8.240;2023-07-31T01:14:21;17.30;99.90
21559;DHT22;10940;48.890;8.240;2023-07-31T01:16:46;17.20;99.90
21559;DHT22;10940;48.890;8.240;2023-07-31T01:19:14;17.10;99.90
21559;DHT22;10940;48.890;8.240;2023-07-31T01:27:34;16.70;99.90
21559;DHT22;10940;48.890;8.240;2023-07-31T01:30:32;16.70;99.90
21559;DHT22;10940;48.890;8.240;2023-07-31T01:33:01;16.70;99.90
21559;DHT22;10940;48.890;8.240;2023-07-31T01:35:33;16.60;99.90
21559;DHT22;10940;48.890;8.240;2023-07-31T01:37:59;16.60;99.90
21559;DHT22;10940;48.890;8.240;2023-07-31T01:40:24;16.60;99.90
21559;DHT22;10940;48.890;8.240;2023-07-31T01:42:50;16.50;99.90
21559;DHT22;10940;48.890;8.240;2023-07-31T01:45:16;16.40;99.90
21559;DHT22;10940;48.890;8.240;2023-07-31T01:47:41;16.30;99.90
21559;DHT22;10940;48.890;8.240;2023-07-31T01:50:07;16.20;99.90
21559;DHT22;10940;48.890;8.240;2023-07-31T01:52:33;16.10;99.90
21559;DHT22;10940;48.890;8.240;2023-07-31T01:54:58;16.10;99.90
21559;DHT22;10940;48.890;8.240;2023-07-31T01:57:24;16.00;99.90
21559;DHT22;10940;48.890;8.240;2023-07-31T01:59:50;16.00;99.90
21559;DHT22;10940;48.890;8.240;2023-07-31T02:02:16;15.90;99.90
21559;DHT22;10940;48.890;8.240;2023-07-31T02:04:42;15.80;99.90
21559;DHT22;10940;48.890;8.240;2023-07-31T02:07:07;15.80;99.90
21559;DHT22;10940;48.890;8.240;2023-07-31T02:09:33;15.80;99.90
21559;DHT22;10940;48.890;8.240;2023-07-31T02:11:58;15.80;99.90
21559;DHT22;10940;48.890;8.240;2023-07-31T02:14:24;15.80;99.90
21559;DHT22;10940;48.890;8.240;2023-07-31T02:16:50;15.90;99.90
21559;DHT22;10940;48.890;8.240;2023-07-31T02:19:16;16.00;99.90
21559;DHT22;10940;48.890;8.240;2023-07-31T02:21:41;16.10;99.90
21559;DHT22;10940;48.890;8.240;2023-07-31T02:24:07;16.20;99.90
21559;DHT22;10940;48.890;8.240;2023-07-31T02:26:33;16.30;99.90
21559;DHT22;10940;48.890;8.240;2023-07-31T02:28:58;16.40;99.90
21559;DHT22;10940;48.890;8.240;2023-07-31T02:31:24;16.50;99.90
21559;DHT22;10940;48.890;8.240;2023-07-31T02:33:49;16.50;99.90
21559;DHT22;10940;48.890;8.240;2023-07-31T02:36:15;16.60;99.90
21559;DHT22;10940;48.890;8.240;2023-07-31T02:38:41;16.70;99.90
21559;DHT22;10940;48.890;8.240;2023-07-31T02:41:06;16.70;99.90
21559;DHT22;10940;48.890;8.240;2023-07-31T02:43:32;16.70;99.90
21559;DHT22;10940;48.890;8.240;2023-07-31T02:45:59;16.70;99.90
21559;DHT22;10940;48.890;8.240;2023-07-31T02:48:24;16.80;99.90
21559;DHT22;10940;48.890;8.240;2023-07-31T02:50:50;16.80;99.90
21559;DHT22;10940;48.890;8.240;2023-07-31T02:53:15;16.80;99.90
21559;DHT22;10940;48.890;8.240;2023-07-31T02:55:41;16.80;99.90
21559;DHT22;10940;48.890;8.240;2023-07-31T02:58:07;16.90;99.90
21559;DHT22;10940;48.890;8.240;2023-07-31T03:00:32;17.00;99.90
21559;DHT22;10940;48.890;8.240;2023-07-31T03:02:58;17.00;99.90
21559;DHT22;10940;48.890;8.240;2023-07-31T03:05:23;17.00;99.90
21559;DHT22;10940;48.890;8.240;2023-07-31T03:07:49;17.00;99.90
21559;DHT22;10940;48.890;8.240;2023-07-31T03:10:15;17.10;99.90
21559;DHT22;10940;48.890;8.240;2023-07-31T03:12:41;17.10;99.90
21559;DHT22;10940;48.890;8.240;2023-07-31T03:15:07;17.10;99.90
21559;DHT22;10940;48.890;8.240;2023-07-31T03:17:33;17.20;99.90
21559;DHT22;10940;48.890;8.240;2023-07-31T03:19:58;17.20;99.90
21559;DHT22;10940;48.890;8.240;2023-07-31T03:22:24;17.20;99.90
21559;DHT22;10940;48.890;8.240;2023-07-31T03:24:49;17.20;99.90
21559;DHT22;10940;48.890;8.240;2023-07-31T03:27:15;17.20;99.90
21559;DHT22;10940;48.890;8.240;2023-07-31T03:29:41;17.20;99.90
21559;DHT22;10940;48.890;8.240;2023-07-31T03:32:06;17.20;99.90
21559;DHT22;10940;48.890;8.240;2023-07-31T03:34:32;17.20;99.90
21559;DHT22;10940;48.890;8.240;2023-07-31T03:36:58;17.20;99.90
21559;DHT22;10940;48.890;8.240;2023-07-31T03:39:24;17.20;99.90
21559;DHT22;10940;48.890;8.240;2023-07-31T03:41:50;17.20;99.90
21559;DHT22;10940;48.890;8.240;2023-07-31T03:44:15;17.20;99.90
21559;DHT22;10940;48.890;8.240;2023-07-31T03:46:41;17.30;99.90
21559;DHT22;10940;48.890;8.240;2023-07-31T03:49:12;17.20;99.90
21559;DHT22;10940;48.890;8.240;2023-07-31T03:51:38;17.20;99.90
21559;DHT22;10940;48.890;8.240;2023-07-31T03:54:04;17.20;99.90
21559;DHT22;10940;48.890;8.240;2023-07-31T03:56:29;17.20;99.90
21559;DHT22;10940;48.890;8.240;2023-07-31T03:58:55;17.20;99.90
21559;DHT22;10940;48.890;8.240;2023-07-31T04:01:20;17.20;99.90
21559;DHT22;10940;48.890;8.240;2023-07-31T04:03:46;17.20;99.90
21559;DHT22;10940;48.890;8.240;2023-07-31T04:06:11;17.30;99.90
21559;DHT22;10940;48.890;8.240;2023-07-31T04:08:37;17.20;99.90
21559;DHT22;10940;48.890;8.240;2023-07-31T04:11:03;17.20;99.90
21559;DHT22;10940;48.890;8.240;2023-07-31T04:13:29;17.20;99.90
21559;DHT22;10940;48.890;8.240;2023-07-31T04:15:55;17.30;99.90
21559;DHT22;10940;48.890;8.240;2023-07-31T04:18:21;17.20;99.90
21559;DHT22;10940;48.890;8.240;2023-07-31T04:20:47;17.20;99.90
21559;DHT22;10940;48.890;8.240;2023-07-31T04:23:13;17.30;99.90
21559;DHT22;10940;48.890;8.240;2023-07-31T04:25:38;17.20;99.90
21559;DHT22;10940;48.890;8.240;2023-07-31T04:28:04;17.30;99.90
21559;DHT22;10940;48.890;8.240;2023-07-31T04:30:30;17.30;99.90
21559;DHT22;10940;48.890;8.240;2023-07-31T04:32:55;17.30;99.90
21559;DHT22;10940;48.890;8.240;2023-07-31T04:35:24;17.20;99.90
21559;DHT22;10940;48.890;8.240;2023-07-31T04:37:50;17.30;99.90
21559;DHT22;10940;48.890;8.240;2023-07-31T04:40:16;17.30;99.90
21559;DHT22;10940;48.890;8.240;2023-07-31T04:42:41;17.30;99.90
21559;DHT22;10940;48.890;8.240;2023-07-31T04:45:09;17.30;99.90
21559;DHT22;10940;48.890;8.240;2023-07-31T04:47:34;17.30;99.90
21559;DHT22;10940;48.890;8.240;2023-07-31T04:50:00;17.30;99.90
21559;DHT22;10940;48.890;8.240;2023-07-31T04:52:26;17.40;99.90
21559;DHT22;10940;48.890;8.240;2023-07-31T04:54:51;17.40;99.90
21559;DHT22;10940;48.890;8.240;2023-07-31T04:57:17;17.40;99.90
21559;DHT22;10940;48.890;8.240;2023-07-31T04:59:43;17.40;99.90
21559;DHT22;10940;48.890;8.240;2023-07-31T05:02:08;17.50;99.90
21559;DHT22;10940;48.890;8.240;2023-07-31T05:04:34;17.50;99.90
21559;DHT22;10940;48.890;8.240;2023-07-31T05:07:00;17.50;99.90
21559;DHT22;10940;48.890;8.240;2023-07-31T05:09:25;17.60;99.90
21559;DHT22;10940;48.890;8.240;2023-07-31T05:11:51;17.60;99.90
21559;DHT22;10940;48.890;8.240;2023-07-31T05:14:16;17.60;99.90
21559;DHT22;10940;48.890;8.240;2023-07-31T05:16:42;17.60;99.90
21559;DHT22;10940;48.890;8.240;2023-07-31T05:19:08;17.60;99.90
21559;DHT22;10940;48.890;8.240;2023-07-31T05:21:33;17.70;99.90
21559;DHT22;10940;48.890;8.240;2023-07-31T05:23:59;17.70;99.90
21559;DHT22;10940;48.890;8.240;2023-07-31T05:26:24;17.80;99.90
21559;DHT22;10940;48.890;8.240;2023-07-31T05:28:50;17.80;99.90
21559;DHT22;10940;48.890;8.240;2023-07-31T05:31:16;17.90;99.90
21559;DHT22;10940;48.890;8.240;2023-07-31T05:33:41;17.90;99.90
21559;DHT22;10940;48.890;8.240;2023-07-31T05:36:07;18.00;99.90
21559;DHT22;10940;48.890;8.240;2023-07-31T05:38:33;18.00;99.90
21559;DHT22;10940;48.890;8.240;2023-07-31T05:40:58;18.10;99.90
21559;DHT22;10940;48.890;8.240;2023-07-31T05:43:24;18.10;99.90
21559;DHT22;10940;48.890;8.240;2023-07-31T05:45:51;18.10;99.90
21559;DHT22;10940;48.890;8.240;2023-07-31T05:48:16;18.10;99.90
21559;DHT22;10940;48.890;8.240;2023-07-31T05:50:43;18.10;99.90
21559;DHT22;10940;48.890;8.240;2023-07-31T05:53:09;18.20;99.90
21559;DHT22;10940;48.890;8.240;2023-07-31T05:55:35;18.20;99.90
21559;DHT22;10940;48.890;8.240;2023-07-31T05:58:01;18.30;99.90
21559;DHT22;10940;48.890;8.240;2023-07-31T06:00:27;18.30;99.90
21559;DHT22;10940;48.890;8.240;2023-07-31T06:02:53;18.40;99.90
21559;DHT22;10940;48.890;8.240;2023-07-31T06:05:19;18.40;99.90
21559;DHT22;10940;48.890;8.240;2023-07-31T06:07:44;18.50;99.90
21559;DHT22;10940;48.890;8.240;2023-07-31T06:10:10;18.50;99.90
21559;DHT22;10940;48.890;8.240;2023-07-31T06:12:36;18.60;99.90
21559;DHT22;10940;48.890;8.240;2023-07-31T06:15:02;18.70;99.90
21559;DHT22;10940;48.890;8.240;2023-07-31T06:17:28;18.80;99.90
21559;DHT22;10940;48.890;8.240;2023-07-31T06:19:56;18.90;99.90
21559;DHT22;10940;48.890;8.240;2023-07-31T06:22:22;18.90;99.90
21559;DHT22;10940;48.890;8.240;2023-07-31T06:24:47;18.90;99.90
21559;DHT22;10940;48.890;8.240;2023-07-31T06:27:13;18.90;99.90
21559;DHT22;10940;48.890;8.240;2023-07-31T06:29:38;18.90;99.90
21559;DHT22;10940;48.890;8.240;2023-07-31T06:32:04;18.90;99.90
21559;DHT22;10940;48.890;8.240;2023-07-31T06:34:30;18.90;99.90
21559;DHT22;10940;48.890;8.240;2023-07-31T06:36:58;19.00;99.90
21559;DHT22;10940;48.890;8.240;2023-07-31T06:39:24;19.00;99.90
21559;DHT22;10940;48.890;8.240;2023-07-31T06:41:50;19.10;99.90
21559;DHT22;10940;48.890;8.240;2023-07-31T06:44:16;19.10;99.90
21559;DHT22;10940;48.890;8.240;2023-07-31T06:46:42;19.10;99.90
21559;DHT22;10940;48.890;8.240;2023-07-31T06:49:08;19.20;99.90
21559;DHT22;10940;48.890;8.240;2023-07-31T06:51:33;19.20;99.90
21559;DHT22;10940;48.890;8.240;2023-07-31T06:54:01;19.10;99.90
21559;DHT22;10940;48.890;8.240;2023-07-31T06:56:26;19.10;99.90
21559;DHT22;10940;48.890;8.240;2023-07-31T06:58:52;19.20;99.90
21559;DHT22;10940;48.890;8.240;2023-07-31T07:01:18;19.10;99.90
21559;DHT22;10940;48.890;8.240;2023-07-31T07:03:44;19.10;99.90
21559;DHT22;10940;48.890;8.240;2023-07-31T07:06:09;19.10;99.90
21559;DHT22;10940;48.890;8.240;2023-07-31T07:08:35;19.10;99.90
21559;DHT22;10940;48.890;8.240;2023-07-31T07:11:01;19.00;99.90
21559;DHT22;10940;48.890;8.240;2023-07-31T07:13:26;19.10;99.90
21559;DHT22;10940;48.890;8.240;2023-07-31T07:15:52;19.10;99.90
21559;DHT22;10940;48.890;8.240;2023-07-31T07:18:18;19.30;99.90
21559;DHT22;10940;48.890;8.240;2023-07-31T07:20:51;19.30;99.90
21559;DHT22;10940;48.890;8.240;2023-07-31T07:23:17;19.40;99.90
21559;DHT22;10940;48.890;8.240;2023-07-31T07:25:44;19.50;99.90
21559;DHT22;10940;48.890;8.240;2023-07-31T07:28:10;19.50;99.90
21559;DHT22;10940;48.890;8.240;2023-07-31T07:30:36;19.60;99.90
21559;DHT22;10940;48.890;8.240;2023-07-31T07:33:02;19.50;99.90
21559;DHT22;10940;48.890;8.240;2023-07-31T07:35:28;19.50;99.90
21559;DHT22;10940;48.890;8.240;2023-07-31T07:37:54;19.50;99.90
21559;DHT22;10940;48.890;8.240;2023-07-31T07:40:20;19.50;99.90
21559;DHT22;10940;48.890;8.240;2023-07-31T07:42:46;19.50;99.90
21559;DHT22;10940;48.890;8.240;2023-07-31T07:45:12;19.60;99.90
21559;DHT22;10940;48.890;8.240;2023-07-31T07:47:41;19.60;99.90
21559;DHT22;10940;48.890;8.240;2023-07-31T07:50:08;19.70;99.90
21559;DHT22;10940;48.890;8.240;2023-07-31T07:52:34;19.70;99.90
21559;DHT22;10940;48.890;8.240;2023-07-31T07:54:59;19.90;99.90
21559;DHT22;10940;48.890;8.240;2023-07-31T07:57:26;20.00;99.90
21559;DHT22;10940;48.890;8.240;2023-07-31T07:59:51;20.10;99.90
21559;DHT22;10940;48.890;8.240;2023-07-31T08:02:17;20.10;99.90
21559;DHT22;10940;48.890;8.240;2023-07-31T08:04:43;20.20;99.90
21559;DHT22;10940;48.890;8.240;2023-07-31T08:07:11;20.30;99.90
21559;DHT22;10940;48.890;8.240;2023-07-31T08:09:37;20.20;99.90
21559;DHT22;10940;48.890;8.240;2023-07-31T08:12:03;20.30;99.90
21559;DHT22;10940;48.890;8.240;2023-07-31T08:14:29;20.40;99.90
21559;DHT22;10940;48.890;8.240;2023-07-31T08:16:55;20.50;99.90
21559;DHT22;10940;48.890;8.240;2023-07-31T08:19:21;20.60;99.90
21559;DHT22;10940;48.890;8.240;2023-07-31T08:21:47;20.70;99.90
21559;DHT22;10940;48.890;8.240;2023-07-31T08:24:12;20.70;99.90
21559;DHT22;10940;48.890;8.240;2023-07-31T08:26:38;20.70;99.90
21559;DHT22;10940;48.890;8.240;2023-07-31T08:29:04;20.80;99.90
21559;DHT22;10940;48.890;8.240;2023-07-31T08:31:29;20.80;99.90
21559;DHT22;10940;48.890;8.240;2023-07-31T08:33:55;20.90;99.90
21559;DHT22;10940;48.890;8.240;2023-07-31T08:36:21;21.00;99.90
21559;DHT22;10940;48.890;8.240;2023-07-31T08:38:47;21.00;99.90
21559;DHT22;10940;48.890;8.240;2023-07-31T08:41:13;21.00;99.90
21559;DHT22;10940;48.890;8.240;2023-07-31T08:43:39;21.00;99.90
21559;DHT22;10940;48.890;8.240;2023-07-31T08:46:05;21.10;99.90
21559;DHT22;10940;48.890;8.240;2023-07-31T08:48:32;21.00;99.90
21559;DHT22;10940;48.890;8.240;2023-07-31T08:50:58;21.00;99.90
21559;DHT22;10940;48.890;8.240;2023-07-31T08:53:23;21.00;99.90
21559;DHT22;10940;48.890;8.240;2023-07-31T08:55:49;21.10;99.90
21559;DHT22;10940;48.890;8.240;2023-07-31T08:58:18;21.10;99.90
21559;DHT22;10940;48.890;8.240;2023-07-31T09:00:46;21.20;99.90
21559;DHT22;10940;48.890;8.240;2023-07-31T09:03:17;21.30;99.90
21559;DHT22;10940;48.890;8.240;2023-07-31T09:05:45;21.40;99.90
21559;DHT22;10940;48.890;8.240;2023-07-31T09:08:12;21.50;99.90
21559;DHT22;10940;48.890;8.240;2023-07-31T09:10:42;21.60;99.90
21559;DHT22;10940;48.890;8.240;2023-07-31T09:13:09;21.70;99.90
21559;DHT22;10940;48.890;8.240;2023-07-31T09:15:36;21.80;99.90
21559;DHT22;10940;48.890;8.240;2023-07-31T09:18:04;21.90;99.90
21559;DHT22;10940;48.890;8.240;2023-07-31T09:20:30;22.00;99.90
21559;DHT22;10940;48.890;8.240;2023-07-31T09:22:58;22.00;99.90
21559;DHT22;10940;48.890;8.240;2023-07-31T09:25:30;22.10;99.90
21559;DHT22;10940;48.890;8.240;2023-07-31T09:28:04;22.10;99.90
21559;DHT22;10940;48.890;8.240;2023-07-31T09:30:30;22.20;99.90
21559;DHT22;10940;48.890;8.240;2023-07-31T09:33:03;22.20;99.90
21559;DHT22;10940;48.890;8.240;2023-07-31T09:35:31;22.20;99.90
21559;DHT22;10940;48.890;8.240;2023-07-31T09:38:06;22.30;99.90
21559;DHT22;10940;48.890;8.240;2023-07-31T09:40:34;22.30;99.90
21559;DHT22;10940;48.890;8.240;2023-07-31T09:43:02;22.40;99.90
21559;DHT22;10940;48.890;8.240;2023-07-31T09:45:29;22.40;99.90
21559;DHT22;10940;48.890;8.240;2023-07-31T09:47:55;22.50;99.90
21559;DHT22;10940;48.890;8.240;2023-07-31T09:50:23;22.60;99.90
21559;DHT22;10940;48.890;8.240;2023-07-31T09:52:50;22.70;99.90
21559;DHT22;10940;48.890;8.240;2023-07-31T09:55:16;22.70;99.90
21559;DHT22;10940;48.890;8.240;2023-07-31T09:57:44;22.80;99.90
21559;DHT22;10940;48.890;8.240;2023-07-31T10:00:11;22.70;99.90
21559;DHT22;10940;48.890;8.240;2023-07-31T10:02:38;22.70;99.90
21559;DHT22;10940;48.890;8.240;2023-07-31T10:05:05;22.60;99.90
21559;DHT22;10940;48.890;8.240;2023-07-31T10:07:33;22.60;99.90
21559;DHT22;10940;48.890;8.240;2023-07-31T10:10:02;22.60;99.90
21559;DHT22;10940;48.890;8.240;2023-07-31T10:12:29;22.60;99.90
21559;DHT22;10940;48.890;8.240;2023-07-31T10:14:57;22.50;99.90
21559;DHT22;10940;48.890;8.240;2023-07-31T10:17:25;22.60;99.90
21559;DHT22;10940;48.890;8.240;2023-07-31T10:19:51;22.70;99.90
21559;DHT22;10940;48.890;8.240;2023-07-31T10:22:18;22.90;99.90
21559;DHT22;10940;48.890;8.240;2023-07-31T10:24:45;22.90;99.90
21559;DHT22;10940;48.890;8.240;2023-07-31T10:27:11;23.00;99.90
21559;DHT22;10940;48.890;8.240;2023-07-31T10:29:41;23.10;99.90
21559;DHT22;10940;48.890;8.240;2023-07-31T10:32:09;23.00;99.90
21559;DHT22;10940;48.890;8.240;2023-07-31T10:34:36;22.90;99.90
21559;DHT22;10940;48.890;8.240;2023-07-31T10:37:40;22.90;99.90
21559;DHT22;10940;48.890;8.240;2023-07-31T10:40:11;22.90;99.90
21559;DHT22;10940;48.890;8.240;2023-07-31T10:42:49;23.00;99.90
21559;DHT22;10940;48.890;8.240;2023-07-31T10:45:37;22.90;99.90
21559;DHT22;10940;48.890;8.240;2023-07-31T10:50:31;22.90;99.90
21559;DHT22;10940;48.890;8.240;2023-07-31T10:52:59;22.80;99.90
21559;DHT22;10940;48.890;8.240;2023-07-31T10:55:40;22.90;99.90
21559;DHT22;10940;48.890;8.240;2023-07-31T11:00:33;23.00;99.90
21559;DHT22;10940;48.890;8.240;2023-07-31T11:03:04;23.10;99.90
21559;DHT22;10940;48.890;8.240;2023-07-31T11:08:21;23.40;99.90
21559;DHT22;10940;48.890;8.240;2023-07-31T11:13:27;23.90;99.90
21559;DHT22;10940;48.890;8.240;2023-07-31T11:15:52;24.00;99.90
21559;DHT22;10940;48.890;8.240;2023-07-31T11:18:18;23.90;99.90
21559;DHT22;10940;48.890;8.240;2023-07-31T11:20:44;23.70;99.90
21559;DHT22;10940;48.890;8.240;2023-07-31T11:23:10;23.50;99.90
21559;DHT22;10940;48.890;8.240;2023-07-31T11:25:37;23.40;99.90
21559;DHT22;10940;48.890;8.240;2023-07-31T11:28:11;23.40;99.90
21559;DHT22;10940;48.890;8.240;2023-07-31T11:30:37;23.50;99.90
21559;DHT22;10940;48.890;8.240;2023-07-31T11:33:04;23.50;99.90
21559;DHT22;10940;48.890;8.240;2023-07-31T11:35:35;23.50;99.90
21559;DHT22;10940;48.890;8.240;2023-07-31T11:38:02;23.50;99.90
21559;DHT22;10940;48.890;8.240;2023-07-31T11:40:28;23.70;99.90
21559;DHT22;10940;48.890;8.240;2023-07-31T11:42:58;23.90;99.90
21559;DHT22;10940;48.890;8.240;2023-07-31T11:45:26;24.00;99.90
21559;DHT22;10940;48.890;8.240;2023-07-31T11:47:55;23.90;99.90
21559;DHT22;10940;48.890;8.240;2023-07-31T11:50:22;24.00;99.90
21559;DHT22;10940;48.890;8.240;2023-07-31T11:52:52;24.00;99.90
21559;DHT22;10940;48.890;8.240;2023-07-31T11:55:19;24.20;99.90
21559;DHT22;10940;48.890;8.240;2023-07-31T11:57:45;24.20;99.90
21559;DHT22;10940;48.890;8.240;2023-07-31T12:00:12;24.30;99.90
21559;DHT22;10940;48.890;8.240;2023-07-31T12:02:39;24.50;99.90
21559;DHT22;10940;48.890;8.240;2023-07-31T12:05:10;24.60;99.90
21559;DHT22;10940;48.890;8.240;2023-07-31T12:07:51;24.70;99.90
21559;DHT22;10940;48.890;8.240;2023-07-31T12:10:29;24.70;99.90
21559;DHT22;10940;48.890;8.240;2023-07-31T12:13:00;24.90;99.90
21559;DHT22;10940;48.890;8.240;2023-07-31T12:15:40;25.00;99.90
21559;DHT22;10940;48.890;8.240;2023-07-31T12:18:10;25.10;99.90
21559;DHT22;10940;48.890;8.240;2023-07-31T12:20:44;25.20;99.90
21559;DHT22;10940;48.890;8.240;2023-07-31T12:23:14;25.20;99.90
21559;DHT22;10940;48.890;8.240;2023-07-31T12:25:40;25.10;99.90
21559;DHT22;10940;48.890;8.240;2023-07-31T12:28:06;24.90;99.90
21559;DHT22;10940;48.890;8.240;2023-07-31T12:30:37;24.90;99.90
21559;DHT22;10940;48.890;8.240;2023-07-31T12:33:15;25.00;99.90
21559;DHT22;10940;48.890;8.240;2023-07-31T12:35:44;25.00;99.90
21559;DHT22;10940;48.890;8.240;2023-07-31T12:38:11;25.00;99.90
21559;DHT22;10940;48.890;8.240;2023-07-31T12:40:38;24.90;99.90
21559;DHT22;10940;48.890;8.240;2023-07-31T12:43:04;24.80;99.90
21559;DHT22;10940;48.890;8.240;2023-07-31T12:45:31;24.70;99.90
21559;DHT22;10940;48.890;8.240;2023-07-31T12:47:58;24.60;99.90
21559;DHT22;10940;48.890;8.240;2023-07-31T12:50:23;24.60;99.90
21559;DHT22;10940;48.890;8.240;2023-07-31T12:52:49;24.50;99.90
21559;DHT22;10940;48.890;8.240;2023-07-31T12:55:15;24.50;99.90
21559;DHT22;10940;48.890;8.240;2023-07-31T12:57:41;24.40;99.90
21559;DHT22;10940;48.890;8.240;2023-07-31T13:00:07;24.40;99.90
21559;DHT22;10940;48.890;8.240;2023-07-31T13:02:33;24.40;99.90
21559;DHT22;10940;48.890;8.240;2023-07-31T13:04:59;24.50;99.90
21559;DHT22;10940;48.890;8.240;2023-07-31T13:07:25;24.60;99.90
21559;DHT22;10940;48.890;8.240;2023-07-31T13:09:51;24.70;99.90
21559;DHT22;10940;48.890;8.240;2023-07-31T13:12:16;24.70;99.90
21559;DHT22;10940;48.890;8.240;2023-07-31T13:14:42;24.70;99.90
21559;DHT22;10940;48.890;8.240;2023-07-31T13:17:08;24.70;99.90
21559;DHT22;10940;48.890;8.240;2023-07-31T13:19:33;24.70;99.90
21559;DHT22;10940;48.890;8.240;2023-07-31T13:21:59;24.70;99.90
21559;DHT22;10940;48.890;8.240;2023-07-31T13:24:25;24.60;99.90
21559;DHT22;10940;48.890;8.240;2023-07-31T13:26:50;24.60;99.90
21559;DHT22;10940;48.890;8.240;2023-07-31T13:29:16;24.50;99.90
21559;DHT22;10940;48.890;8.240;2023-07-31T13:31:42;24.40;99.90
21559;DHT22;10940;48.890;8.240;2023-07-31T13:34:07;24.50;99.90
21559;DHT22;10940;48.890;8.240;2023-07-31T13:36:33;24.60;99.90
21559;DHT22;10940;48.890;8.240;2023-07-31T13:39:00;24.60;99.90
21559;DHT22;10940;48.890;8.240;2023-07-31T13:41:26;24.60;99.90
21559;DHT22;10940;48.890;8.240;2023-07-31T13:43:52;24.60;99.90
21559;DHT22;10940;48.890;8.240;2023-07-31T13:46:17;24.50;99.90
21559;DHT22;10940;48.890;8.240;2023-07-31T13:48:43;24.40;99.90
21559;DHT22;10940;48.890;8.240;2023-07-31T13:51:08;24.50;99.90
21559;DHT22;10940;48.890;8.240;2023-07-31T13:53:34;24.50;99.90
21559;DHT22;10940;48.890;8.240;2023-07-31T13:56:00;24.60;99.90
21559;DHT22;10940;48.890;8.240;2023-07-31T13:58:26;24.70;99.90
21559;DHT22;10940;48.890;8.240;2023-07-31T14:00:51;24.70;99.90
21559;DHT22;10940;48.890;8.240;2023-07-31T14:03:17;24.60;99.90
21559;DHT22;10940;48.890;8.240;2023-07-31T14:05:43;24.60;99.90
21559;DHT22;10940;48.890;8.240;2023-07-31T14:08:08;24.40;99.90
21559;DHT22;10940;48.890;8.240;2023-07-31T14:10:34;24.40;99.90
21559;DHT22;10940;48.890;8.240;2023-07-31T14:13:00;24.20;99.90
21559;DHT22;10940;48.890;8.240;2023-07-31T14:15:25;24.20;99.90
21559;DHT22;10940;48.890;8.240;2023-07-31T14:17:51;24.10;99.90
21559;DHT22;10940;48.890;8.240;2023-07-31T14:20:16;24.00;99.90
21559;DHT22;10940;48.890;8.240;2023-07-31T14:22:42;24.00;99.90
21559;DHT22;10940;48.890;8.240;2023-07-31T14:25:08;24.00;99.90
21559;DHT22;10940;48.890;8.240;2023-07-31T14:27:35;24.00;99.90
21559;DHT22;10940;48.890;8.240;2023-07-31T14:30:02;24.00;99.90
21559;DHT22;10940;48.890;8.240;2023-07-31T14:32:28;24.00;99.90
21559;DHT22;10940;48.890;8.240;2023-07-31T14:34:53;24.00;99.90
21559;DHT22;10940;48.890;8.240;2023-07-31T14:37:20;24.00;99.90
21559;DHT22;10940;48.890;8.240;2023-07-31T14:39:45;24.00;99.90
21559;DHT22;10940;48.890;8.240;2023-07-31T14:42:11;24.10;99.90
21559;DHT22;10940;48.890;8.240;2023-07-31T14:44:37;24.10;99.90
21559;DHT22;10940;48.890;8.240;2023-07-31T14:47:02;24.10;99.90
21559;DHT22;10940;48.890;8.240;2023-07-31T14:49:28;24.20;99.90
21559;DHT22;10940;48.890;8.240;2023-07-31T14:51:54;24.20;99.90
21559;DHT22;10940;48.890;8.240;2023-07-31T14:54:20;24.20;99.90
21559;DHT22;10940;48.890;8.240;2023-07-31T14:56:45;24.20;99.90
21559;DHT22;10940;48.890;8.240;2023-07-31T14:59:11;24.20;99.90
21559;DHT22;10940;48.890;8.240;2023-07-31T15:01:37;24.20;99.90
21559;DHT22;10940;48.890;8.240;2023-07-31T15:04:03;24.30;99.90
21559;DHT22;10940;48.890;8.240;2023-07-31T15:06:29;24.40;99.90
21559;DHT22;10940;48.890;8.240;2023-07-31T15:08:54;24.40;99.90
21559;DHT22;10940;48.890;8.240;2023-07-31T15:11:20;24.50;99.90
21559;DHT22;10940;48.890;8.240;2023-07-31T15:13:46;24.60;99.90
21559;DHT22;10940;48.890;8.240;2023-07-31T15:16:11;24.60;99.90
21559;DHT22;10940;48.890;8.240;2023-07-31T15:18:37;24.70;99.90
21559;DHT22;10940;48.890;8.240;2023-07-31T15:21:03;24.70;99.90
21559;DHT22;10940;48.890;8.240;2023-07-31T15:23:29;24.70;99.90
21559;DHT22;10940;48.890;8.240;2023-07-31T15:25:55;24.70;99.90
21559;DHT22;10940;48.890;8.240;2023-07-31T15:28:20;24.70;99.90
21559;DHT22;10940;48.890;8.240;2023-07-31T15:30:46;24.70;99.90
21559;DHT22;10940;48.890;8.240;2023-07-31T15:33:12;24.70;99.90
21559;DHT22;10940;48.890;8.240;2023-07-31T15:35:38;24.60;99.90
21559;DHT22;10940;48.890;8.240;2023-07-31T15:38:03;24.60;99.90
21559;DHT22;10940;48.890;8.240;2023-07-31T15:40:29;24.40;99.90
21559;DHT22;10940;48.890;8.240;2023-07-31T15:42:55;24.30;99.90
21559;DHT22;10940;48.890;8.240;2023-07-31T15:45:20;24.30;99.90